Buckingham, Iowa
Current Conditions -  °F | °C
As of 11:08 PM on Monday 22 Dec 2014 (Local Time) from KALO Reporting Station
Light Rain Light Rain  
Wind Chill: 28°   Ceiling: 200
Heat Index: 35°   Visibility: 3mi
Dew Point: 35°   Wind: 9mph
Humidity: 100%   Direction: 70°ENE
Pressure: 29.49"   Gusts: NA
Location:  42.26°N, 92.45°W
Report Text: KALO 230508Z AUTO 07008KT 3SM -RA BR OVC002 02/02 A2949 RMK AO2 P0001 T00170017
Loading
Personal Weather Stations






























Interactive Weather Map New forecast layout! Learn more

10-Day Weather Forecast

Advertisements
Track Severe Weather on mobile